sensor_id;sensor_type;location;lat;lon;timestamp;temperature;humidity
74368;DHT22;64991;41.090;-8.118;2023-03-14T00:03:42;18.70;79.70
74368;DHT22;64991;41.090;-8.118;2023-03-14T00:08:48;18.70;79.50
74368;DHT22;64991;41.090;-8.118;2023-03-14T00:13:52;18.60;79.60
74368;DHT22;64991;41.090;-8.118;2023-03-14T00:18:57;18.70;79.50
74368;DHT22;64991;41.090;-8.118;2023-03-14T00:24:03;18.80;79.60
74368;DHT22;64991;41.090;-8.118;2023-03-14T00:29:07;18.60;79.70
74368;DHT22;64991;41.090;-8.118;2023-03-14T00:34:10;18.70;79.50
74368;DHT22;64991;41.090;-8.118;2023-03-14T00:39:15;18.70;79.50
74368;DHT22;64991;41.090;-8.118;2023-03-14T00:44:18;18.60;79.50
74368;DHT22;64991;41.090;-8.118;2023-03-14T00:49:22;18.70;79.40
74368;DHT22;64991;41.090;-8.118;2023-03-14T00:54:27;18.50;79.70
74368;DHT22;64991;41.090;-8.118;2023-03-14T00:59:30;18.60;79.80
74368;DHT22;64991;41.090;-8.118;2023-03-14T01:04:33;18.60;79.50
74368;DHT22;64991;41.090;-8.118;2023-03-14T01:09:40;18.60;79.90
74368;DHT22;64991;41.090;-8.118;2023-03-14T01:14:44;18.60;79.70
74368;DHT22;64991;41.090;-8.118;2023-03-14T01:19:47;18.70;79.60
74368;DHT22;64991;41.090;-8.118;2023-03-14T01:24:52;18.50;79.80
74368;DHT22;64991;41.090;-8.118;2023-03-14T01:29:55;18.60;79.60
74368;DHT22;64991;41.090;-8.118;2023-03-14T01:34:59;18.50;79.70
74368;DHT22;64991;41.090;-8.118;2023-03-14T01:40:04;18.60;79.50
74368;DHT22;64991;41.090;-8.118;2023-03-14T01:50:45;18.60;79.60
74368;DHT22;64991;41.090;-8.118;2023-03-14T01:55:50;18.40;79.70
74368;DHT22;64991;41.090;-8.118;2023-03-14T02:00:55;18.50;79.60
74368;DHT22;64991;41.090;-8.118;2023-03-14T02:06:03;18.50;79.90
74368;DHT22;64991;41.090;-8.118;2023-03-14T02:11:09;18.50;79.60
74368;DHT22;64991;41.090;-8.118;2023-03-14T02:16:13;18.60;79.50
74368;DHT22;64991;41.090;-8.118;2023-03-14T02:21:17;18.40;79.70
74368;DHT22;64991;41.090;-8.118;2023-03-14T02:26:27;18.40;79.60
74368;DHT22;64991;41.090;-8.118;2023-03-14T02:31:32;18.30;80.00
74368;DHT22;64991;41.090;-8.118;2023-03-14T02:36:36;18.30;79.60
74368;DHT22;64991;41.090;-8.118;2023-03-14T02:41:40;18.30;79.60
74368;DHT22;64991;41.090;-8.118;2023-03-14T02:46:45;18.50;79.50
74368;DHT22;64991;41.090;-8.118;2023-03-14T02:51:49;18.50;79.60
74368;DHT22;64991;41.090;-8.118;2023-03-14T02:56:52;18.30;79.70
74368;DHT22;64991;41.090;-8.118;2023-03-14T03:01:57;18.30;79.80
74368;DHT22;64991;41.090;-8.118;2023-03-14T03:07:02;18.30;79.80
74368;DHT22;64991;41.090;-8.118;2023-03-14T03:12:06;18.40;79.70
74368;DHT22;64991;41.090;-8.118;2023-03-14T03:17:11;18.40;79.70
74368;DHT22;64991;41.090;-8.118;2023-03-14T03:22:14;18.30;79.70
74368;DHT22;64991;41.090;-8.118;2023-03-14T03:27:17;18.30;79.70
74368;DHT22;64991;41.090;-8.118;2023-03-14T03:32:22;18.20;79.60
74368;DHT22;64991;41.090;-8.118;2023-03-14T03:37:26;18.30;79.60
74368;DHT22;64991;41.090;-8.118;2023-03-14T03:42:29;18.20;79.60
74368;DHT22;64991;41.090;-8.118;2023-03-14T03:47:34;18.30;79.50
74368;DHT22;64991;41.090;-8.118;2023-03-14T03:52:37;18.20;79.70
74368;DHT22;64991;41.090;-8.118;2023-03-14T03:57:41;18.20;79.60
74368;DHT22;64991;41.090;-8.118;2023-03-14T04:02:46;18.30;79.70
74368;DHT22;64991;41.090;-8.118;2023-03-14T04:07:49;18.20;79.70
74368;DHT22;64991;41.090;-8.118;2023-03-14T04:12:53;18.20;79.60
74368;DHT22;64991;41.090;-8.118;2023-03-14T04:17:58;18.30;79.50
74368;DHT22;64991;41.090;-8.118;2023-03-14T04:23:01;18.20;79.60
74368;DHT22;64991;41.090;-8.118;2023-03-14T04:28:05;18.20;79.60
74368;DHT22;64991;41.090;-8.118;2023-03-14T04:33:10;18.10;80.10
74368;DHT22;64991;41.090;-8.118;2023-03-14T04:38:16;18.20;79.60
74368;DHT22;64991;41.090;-8.118;2023-03-14T04:43:20;18.20;79.30
74368;DHT22;64991;41.090;-8.118;2023-03-14T04:48:25;18.20;79.50
74368;DHT22;64991;41.090;-8.118;2023-03-14T04:53:29;18.20;79.50
74368;DHT22;64991;41.090;-8.118;2023-03-14T04:58:33;18.20;79.40
74368;DHT22;64991;41.090;-8.118;2023-03-14T05:03:38;18.20;79.40
74368;DHT22;64991;41.090;-8.118;2023-03-14T05:08:42;18.20;79.30
74368;DHT22;64991;41.090;-8.118;2023-03-14T05:13:46;18.20;79.60
74368;DHT22;64991;41.090;-8.118;2023-03-14T05:18:51;18.10;79.80
74368;DHT22;64991;41.090;-8.118;2023-03-14T05:23:54;18.20;79.40
74368;DHT22;64991;41.090;-8.118;2023-03-14T05:28:58;18.20;79.40
74368;DHT22;64991;41.090;-8.118;2023-03-14T05:34:02;18.10;79.80
74368;DHT22;64991;41.090;-8.118;2023-03-14T05:39:06;18.10;79.80
74368;DHT22;64991;41.090;-8.118;2023-03-14T05:44:09;18.20;79.30
74368;DHT22;64991;41.090;-8.118;2023-03-14T05:49:14;18.20;79.20
74368;DHT22;64991;41.090;-8.118;2023-03-14T05:54:17;18.20;79.10
74368;DHT22;64991;41.090;-8.118;2023-03-14T05:59:21;18.20;79.20
74368;DHT22;64991;41.090;-8.118;2023-03-14T06:04:26;18.20;79.00
74368;DHT22;64991;41.090;-8.118;2023-03-14T06:09:29;18.10;79.60
74368;DHT22;64991;41.090;-8.118;2023-03-14T06:14:32;18.20;79.10
74368;DHT22;64991;41.090;-8.118;2023-03-14T06:19:37;18.10;79.50
74368;DHT22;64991;41.090;-8.118;2023-03-14T06:24:41;18.20;79.00
74368;DHT22;64991;41.090;-8.118;2023-03-14T06:29:44;18.20;79.00
74368;DHT22;64991;41.090;-8.118;2023-03-14T06:34:49;18.10;79.40
74368;DHT22;64991;41.090;-8.118;2023-03-14T06:39:52;18.10;79.50
74368;DHT22;64991;41.090;-8.118;2023-03-14T06:44:55;18.10;79.50
74368;DHT22;64991;41.090;-8.118;2023-03-14T06:50:00;18.10;79.40
74368;DHT22;64991;41.090;-8.118;2023-03-14T06:55:04;18.10;79.30
74368;DHT22;64991;41.090;-8.118;2023-03-14T07:00:09;18.20;79.00
74368;DHT22;64991;41.090;-8.118;2023-03-14T07:05:15;18.10;79.40
74368;DHT22;64991;41.090;-8.118;2023-03-14T07:10:18;18.10;79.40
74368;DHT22;64991;41.090;-8.118;2023-03-14T07:15:22;18.10;79.30
74368;DHT22;64991;41.090;-8.118;2023-03-14T07:20:27;18.10;79.20
74368;DHT22;64991;41.090;-8.118;2023-03-14T07:25:32;18.20;78.80
74368;DHT22;64991;41.090;-8.118;2023-03-14T07:30:35;18.00;79.30
74368;DHT22;64991;41.090;-8.118;2023-03-14T07:35:40;18.10;79.20
74368;DHT22;64991;41.090;-8.118;2023-03-14T07:40:43;18.20;78.90
74368;DHT22;64991;41.090;-8.118;2023-03-14T07:45:47;18.10;79.20
74368;DHT22;64991;41.090;-8.118;2023-03-14T07:50:53;18.10;79.10
74368;DHT22;64991;41.090;-8.118;2023-03-14T07:55:57;18.10;79.10
74368;DHT22;64991;41.090;-8.118;2023-03-14T08:01:01;18.10;79.00
74368;DHT22;64991;41.090;-8.118;2023-03-14T08:06:06;18.10;79.10
74368;DHT22;64991;41.090;-8.118;2023-03-14T08:11:10;18.00;79.20
74368;DHT22;64991;41.090;-8.118;2023-03-14T08:16:13;18.00;79.20
74368;DHT22;64991;41.090;-8.118;2023-03-14T08:21:18;18.00;79.10
74368;DHT22;64991;41.090;-8.118;2023-03-14T08:26:21;18.00;79.00
74368;DHT22;64991;41.090;-8.118;2023-03-14T08:31:25;18.10;78.90
74368;DHT22;64991;41.090;-8.118;2023-03-14T08:36:30;18.10;79.00
74368;DHT22;64991;41.090;-8.118;2023-03-14T08:41:33;18.10;79.00
74368;DHT22;64991;41.090;-8.118;2023-03-14T08:46:41;18.00;79.10
74368;DHT22;64991;41.090;-8.118;2023-03-14T08:51:46;18.10;79.10
74368;DHT22;64991;41.090;-8.118;2023-03-14T08:56:50;18.00;79.10
74368;DHT22;64991;41.090;-8.118;2023-03-14T09:01:53;18.00;79.30
74368;DHT22;64991;41.090;-8.118;2023-03-14T09:06:58;18.00;79.40
74368;DHT22;64991;41.090;-8.118;2023-03-14T09:12:02;18.00;79.20
74368;DHT22;64991;41.090;-8.118;2023-03-14T09:17:06;18.00;79.30
74368;DHT22;64991;41.090;-8.118;2023-03-14T09:22:11;17.90;79.30
74368;DHT22;64991;41.090;-8.118;2023-03-14T09:27:14;18.00;79.20
74368;DHT22;64991;41.090;-8.118;2023-03-14T09:32:18;18.00;79.20
74368;DHT22;64991;41.090;-8.118;2023-03-14T09:37:23;18.00;79.40
74368;DHT22;64991;41.090;-8.118;2023-03-14T09:42:26;18.00;79.30
74368;DHT22;64991;41.090;-8.118;2023-03-14T09:47:30;18.10;79.50
74368;DHT22;64991;41.090;-8.118;2023-03-14T09:52:36;18.00;79.40
74368;DHT22;64991;41.090;-8.118;2023-03-14T09:57:43;18.00;79.40
74368;DHT22;64991;41.090;-8.118;2023-03-14T10:02:49;18.00;79.40
74368;DHT22;64991;41.090;-8.118;2023-03-14T10:07:55;18.00;79.40
74368;DHT22;64991;41.090;-8.118;2023-03-14T10:12:59;18.00;79.40
74368;DHT22;64991;41.090;-8.118;2023-03-14T10:18:13;17.90;79.50
74368;DHT22;64991;41.090;-8.118;2023-03-14T10:23:26;17.90;79.60
74368;DHT22;64991;41.090;-8.118;2023-03-14T10:28:31;18.00;79.60
74368;DHT22;64991;41.090;-8.118;2023-03-14T10:33:36;18.00;79.70
74368;DHT22;64991;41.090;-8.118;2023-03-14T10:38:42;18.00;79.70
74368;DHT22;64991;41.090;-8.118;2023-03-14T10:43:46;18.00;79.70
74368;DHT22;64991;41.090;-8.118;2023-03-14T10:48:53;18.00;79.70
74368;DHT22;64991;41.090;-8.118;2023-03-14T10:53:58;18.00;79.60
74368;DHT22;64991;41.090;-8.118;2023-03-14T10:59:03;17.90;79.70
74368;DHT22;64991;41.090;-8.118;2023-03-14T11:04:20;18.00;80.00
74368;DHT22;64991;41.090;-8.118;2023-03-14T11:09:31;18.00;80.00
74368;DHT22;64991;41.090;-8.118;2023-03-14T11:14:41;18.00;79.90
74368;DHT22;64991;41.090;-8.118;2023-03-14T11:19:53;17.90;79.90
74368;DHT22;64991;41.090;-8.118;2023-03-14T11:25:06;17.90;80.00
74368;DHT22;64991;41.090;-8.118;2023-03-14T11:30:19;17.90;80.00
74368;DHT22;64991;41.090;-8.118;2023-03-14T11:35:32;18.00;80.20
74368;DHT22;64991;41.090;-8.118;2023-03-14T11:40:39;17.90;80.30
74368;DHT22;64991;41.090;-8.118;2023-03-14T11:45:43;18.00;80.10
74368;DHT22;64991;41.090;-8.118;2023-03-14T11:50:48;17.90;80.20
74368;DHT22;64991;41.090;-8.118;2023-03-14T11:55:55;18.00;80.30
74368;DHT22;64991;41.090;-8.118;2023-03-14T12:00:58;18.00;80.50
74368;DHT22;64991;41.090;-8.118;2023-03-14T12:06:09;17.90;80.30
74368;DHT22;64991;41.090;-8.118;2023-03-14T12:11:19;18.00;80.30
74368;DHT22;64991;41.090;-8.118;2023-03-14T12:16:35;18.00;80.20
74368;DHT22;64991;41.090;-8.118;2023-03-14T12:21:46;18.00;80.60
74368;DHT22;64991;41.090;-8.118;2023-03-14T12:26:54;18.00;80.50
74368;DHT22;64991;41.090;-8.118;2023-03-14T12:32:09;18.00;80.40
74368;DHT22;64991;41.090;-8.118;2023-03-14T12:37:28;18.00;80.60
74368;DHT22;64991;41.090;-8.118;2023-03-14T12:42:38;17.90;80.40
74368;DHT22;64991;41.090;-8.118;2023-03-14T12:59:01;18.00;80.50
74368;DHT22;64991;41.090;-8.118;2023-03-14T13:04:26;18.00;80.60
74368;DHT22;64991;41.090;-8.118;2023-03-14T13:15:14;18.00;80.40
74368;DHT22;64991;41.090;-8.118;2023-03-14T13:20:22;18.00;80.10
74368;DHT22;64991;41.090;-8.118;2023-03-14T13:25:31;18.00;80.40
74368;DHT22;64991;41.090;-8.118;2023-03-14T13:30:38;18.00;80.40
74368;DHT22;64991;41.090;-8.118;2023-03-14T13:35:44;18.00;80.60
74368;DHT22;64991;41.090;-8.118;2023-03-14T13:40:49;18.00;80.40
74368;DHT22;64991;41.090;-8.118;2023-03-14T13:45:56;18.10;80.40
74368;DHT22;64991;41.090;-8.118;2023-03-14T13:51:05;18.00;80.50
74368;DHT22;64991;41.090;-8.118;2023-03-14T13:56:11;18.00;80.60
74368;DHT22;64991;41.090;-8.118;2023-03-14T14:01:16;18.00;80.60
74368;DHT22;64991;41.090;-8.118;2023-03-14T14:06:29;18.10;80.30
74368;DHT22;64991;41.090;-8.118;2023-03-14T14:11:41;18.10;80.50
74368;DHT22;64991;41.090;-8.118;2023-03-14T14:17:03;18.00;80.40
74368;DHT22;64991;41.090;-8.118;2023-03-14T14:22:08;18.00;80.30
74368;DHT22;64991;41.090;-8.118;2023-03-14T14:27:13;18.10;80.20
74368;DHT22;64991;41.090;-8.118;2023-03-14T14:32:20;18.10;80.40
74368;DHT22;64991;41.090;-8.118;2023-03-14T14:37:25;18.10;80.30
74368;DHT22;64991;41.090;-8.118;2023-03-14T14:42:30;18.00;80.50
74368;DHT22;64991;41.090;-8.118;2023-03-14T14:47:35;18.10;80.30
74368;DHT22;64991;41.090;-8.118;2023-03-14T14:52:41;18.10;80.30
74368;DHT22;64991;41.090;-8.118;2023-03-14T14:57:49;18.10;80.30
74368;DHT22;64991;41.090;-8.118;2023-03-14T15:02:55;18.00;80.20
74368;DHT22;64991;41.090;-8.118;2023-03-14T15:08:02;18.00;80.20
74368;DHT22;64991;41.090;-8.118;2023-03-14T15:13:06;18.10;80.50
74368;DHT22;64991;41.090;-8.118;2023-03-14T15:18:15;18.10;80.20
74368;DHT22;64991;41.090;-8.118;2023-03-14T15:23:20;18.10;80.20
74368;DHT22;64991;41.090;-8.118;2023-03-14T15:28:25;18.10;80.30
74368;DHT22;64991;41.090;-8.118;2023-03-14T15:33:30;18.10;80.10
74368;DHT22;64991;41.090;-8.118;2023-03-14T15:38:34;18.10;80.30
74368;DHT22;64991;41.090;-8.118;2023-03-14T15:43:38;18.00;80.20
74368;DHT22;64991;41.090;-8.118;2023-03-14T15:48:43;18.10;80.40
74368;DHT22;64991;41.090;-8.118;2023-03-14T15:53:46;18.10;80.40
74368;DHT22;64991;41.090;-8.118;2023-03-14T15:58:50;18.10;80.20
74368;DHT22;64991;41.090;-8.118;2023-03-14T16:03:55;18.10;80.30
74368;DHT22;64991;41.090;-8.118;2023-03-14T16:08:59;18.00;80.40
74368;DHT22;64991;41.090;-8.118;2023-03-14T16:14:02;18.00;80.20
74368;DHT22;64991;41.090;-8.118;2023-03-14T16:19:07;18.10;80.20
74368;DHT22;64991;41.090;-8.118;2023-03-14T16:24:10;18.10;80.10
74368;DHT22;64991;41.090;-8.118;2023-03-14T16:29:14;18.00;80.20
74368;DHT22;64991;41.090;-8.118;2023-03-14T16:34:19;18.00;80.30
74368;DHT22;64991;41.090;-8.118;2023-03-14T16:39:22;18.00;80.30
74368;DHT22;64991;41.090;-8.118;2023-03-14T16:44:26;18.10;80.10
74368;DHT22;64991;41.090;-8.118;2023-03-14T16:49:31;18.00;80.00
74368;DHT22;64991;41.090;-8.118;2023-03-14T16:54:34;18.00;80.00
74368;DHT22;64991;41.090;-8.118;2023-03-14T16:59:38;18.10;80.00
74368;DHT22;64991;41.090;-8.118;2023-03-14T17:04:43;18.10;80.10
74368;DHT22;64991;41.090;-8.118;2023-03-14T17:09:46;18.10;80.00
74368;DHT22;64991;41.090;-8.118;2023-03-14T17:14:50;18.10;79.90
74368;DHT22;64991;41.090;-8.118;2023-03-14T17:19:55;18.00;79.90
74368;DHT22;64991;41.090;-8.118;2023-03-14T17:24:58;18.00;80.10
74368;DHT22;64991;41.090;-8.118;2023-03-14T17:30:02;18.10;80.00
74368;DHT22;64991;41.090;-8.118;2023-03-14T17:35:08;18.10;80.00
74368;DHT22;64991;41.090;-8.118;2023-03-14T17:40:11;18.00;79.90
74368;DHT22;64991;41.090;-8.118;2023-03-14T17:45:15;18.10;80.00
74368;DHT22;64991;41.090;-8.118;2023-03-14T17:50:21;18.00;80.00
74368;DHT22;64991;41.090;-8.118;2023-03-14T17:55:25;18.00;80.10
74368;DHT22;64991;41.090;-8.118;2023-03-14T18:00:28;18.10;80.20
74368;DHT22;64991;41.090;-8.118;2023-03-14T18:05:36;18.00;80.10
74368;DHT22;64991;41.090;-8.118;2023-03-14T18:10:40;18.00;79.80
74368;DHT22;64991;41.090;-8.118;2023-03-14T18:15:45;18.00;79.80
74368;DHT22;64991;41.090;-8.118;2023-03-14T18:20:50;18.10;79.90
74368;DHT22;64991;41.090;-8.118;2023-03-14T18:25:54;18.00;80.00
74368;DHT22;64991;41.090;-8.118;2023-03-14T18:31:00;18.10;80.00
74368;DHT22;64991;41.090;-8.118;2023-03-14T18:36:06;18.10;79.80
74368;DHT22;64991;41.090;-8.118;2023-03-14T18:41:10;18.10;79.70
74368;DHT22;64991;41.090;-8.118;2023-03-14T18:46:15;18.10;79.90
74368;DHT22;64991;41.090;-8.118;2023-03-14T18:51:20;18.10;79.90
74368;DHT22;64991;41.090;-8.118;2023-03-14T18:56:24;18.00;79.90
74368;DHT22;64991;41.090;-8.118;2023-03-14T19:01:28;18.00;79.90
74368;DHT22;64991;41.090;-8.118;2023-03-14T19:06:33;18.10;80.00
74368;DHT22;64991;41.090;-8.118;2023-03-14T19:11:37;18.00;80.10
74368;DHT22;64991;41.090;-8.118;2023-03-14T19:16:40;18.00;79.70
74368;DHT22;64991;41.090;-8.118;2023-03-14T19:21:45;18.10;79.80
74368;DHT22;64991;41.090;-8.118;2023-03-14T19:26:49;18.00;79.90
74368;DHT22;64991;41.090;-8.118;2023-03-14T19:31:55;18.00;79.90
74368;DHT22;64991;41.090;-8.118;2023-03-14T19:37:00;18.10;79.90
74368;DHT22;64991;41.090;-8.118;2023-03-14T19:42:03;18.00;80.00
74368;DHT22;64991;41.090;-8.118;2023-03-14T19:47:07;18.10;79.90
74368;DHT22;64991;41.090;-8.118;2023-03-14T19:52:12;18.10;80.00
74368;DHT22;64991;41.090;-8.118;2023-03-14T19:57:15;18.10;80.10
74368;DHT22;64991;41.090;-8.118;2023-03-14T20:02:19;18.00;80.10
74368;DHT22;64991;41.090;-8.118;2023-03-14T20:07:24;18.10;80.10
74368;DHT22;64991;41.090;-8.118;2023-03-14T20:12:28;18.10;80.10
74368;DHT22;64991;41.090;-8.118;2023-03-14T20:17:32;18.00;80.00
74368;DHT22;64991;41.090;-8.118;2023-03-14T20:22:40;18.00;80.10
74368;DHT22;64991;41.090;-8.118;2023-03-14T20:27:44;18.00;80.10
74368;DHT22;64991;41.090;-8.118;2023-03-14T20:32:48;18.10;80.10
74368;DHT22;64991;41.090;-8.118;2023-03-14T20:37:54;18.00;80.00
74368;DHT22;64991;41.090;-8.118;2023-03-14T20:42:57;18.00;80.10
74368;DHT22;64991;41.090;-8.118;2023-03-14T20:48:01;18.00;80.10
74368;DHT22;64991;41.090;-8.118;2023-03-14T20:53:06;18.00;80.00
74368;DHT22;64991;41.090;-8.118;2023-03-14T20:58:09;18.00;80.20
74368;DHT22;64991;41.090;-8.118;2023-03-14T21:03:14;18.00;80.30
74368;DHT22;64991;41.090;-8.118;2023-03-14T21:08:20;18.10;80.00
74368;DHT22;64991;41.090;-8.118;2023-03-14T21:13:25;18.00;80.20
74368;DHT22;64991;41.090;-8.118;2023-03-14T21:18:28;18.00;80.30
74368;DHT22;64991;41.090;-8.118;2023-03-14T21:23:34;18.00;80.00
74368;DHT22;64991;41.090;-8.118;2023-03-14T21:28:37;18.00;80.30
74368;DHT22;64991;41.090;-8.118;2023-03-14T21:33:43;18.00;80.30
74368;DHT22;64991;41.090;-8.118;2023-03-14T21:38:48;18.00;80.20
74368;DHT22;64991;41.090;-8.118;2023-03-14T21:43:51;18.00;80.20
74368;DHT22;64991;41.090;-8.118;2023-03-14T21:48:55;18.00;80.20
74368;DHT22;64991;41.090;-8.118;2023-03-14T21:54:00;18.10;80.00
74368;DHT22;64991;41.090;-8.118;2023-03-14T21:59:11;18.10;80.20
74368;DHT22;64991;41.090;-8.118;2023-03-14T22:04:15;18.00;79.80
74368;DHT22;64991;41.090;-8.118;2023-03-14T22:09:20;18.00;80.10
74368;DHT22;64991;41.090;-8.118;2023-03-14T22:14:24;18.10;79.90
74368;DHT22;64991;41.090;-8.118;2023-03-14T22:19:27;18.00;79.80
74368;DHT22;64991;41.090;-8.118;2023-03-14T22:24:33;18.00;80.10
74368;DHT22;64991;41.090;-8.118;2023-03-14T22:29:36;18.10;79.90
74368;DHT22;64991;41.090;-8.118;2023-03-14T22:34:40;18.10;80.00
74368;DHT22;64991;41.090;-8.118;2023-03-14T22:39:45;18.10;79.80
74368;DHT22;64991;41.090;-8.118;2023-03-14T22:44:50;18.00;80.10
74368;DHT22;64991;41.090;-8.118;2023-03-14T22:49:53;18.00;79.70
74368;DHT22;64991;41.090;-8.118;2023-03-14T22:54:58;18.10;79.90
74368;DHT22;64991;41.090;-8.118;2023-03-14T23:00:02;18.00;79.90
74368;DHT22;64991;41.090;-8.118;2023-03-14T23:05:12;18.00;79.80
74368;DHT22;64991;41.090;-8.118;2023-03-14T23:10:17;18.00;79.70
74368;DHT22;64991;41.090;-8.118;2023-03-14T23:15:21;18.00;79.80
74368;DHT22;64991;41.090;-8.118;2023-03-14T23:20:25;18.00;79.80
74368;DHT22;64991;41.090;-8.118;2023-03-14T23:25:30;18.00;79.60
74368;DHT22;64991;41.090;-8.118;2023-03-14T23:30:42;18.00;79.90
74368;DHT22;64991;41.090;-8.118;2023-03-14T23:35:45;18.00;79.60
74368;DHT22;64991;41.090;-8.118;2023-03-14T23:40:50;18.00;79.60
74368;DHT22;64991;41.090;-8.118;2023-03-14T23:45:55;18.00;79.60
74368;DHT22;64991;41.090;-8.118;2023-03-14T23:50:59;18.00;79.40
74368;DHT22;64991;41.090;-8.118;2023-03-14T23:56:06;18.00;79.50
